Time;durP1;ratioP1;P1;durP2;ratioP2;P2;SDS_P1;SDS_P2;PMS_P1;PMS_P2;Temp;Humidity;BMP_temperature;BMP_pressure;BME280_temperature;BME280_humidity;BME280_pressure;Samples;Min_cycle;Max_cycle;Signal;HPM_P1;HPM_P2
2022/10/11 00:02:31;;;;;;;;;;;20.40;49.20;;;;;;8364324;28;19967;-44
2022/10/11 00:06:32;;;;;;;;;;;20.40;49.20;;;;;;8363696;28;19925;-44
2022/10/11 00:10:33;;;;;;;;;;;20.40;49.20;;;;;;8364358;28;19920;-44
2022/10/11 00:14:33;;;;;;;;;;;20.40;49.20;;;;;;8363863;28;19917;-45
2022/10/11 00:18:33;;;;;;;;;;;20.40;49.20;;;;;;8363383;28;20297;-45
2022/10/11 00:22:34;;;;;;;;;;;20.30;49.20;;;;;;8363899;28;20357;-44
2022/10/11 00:26:35;;;;;;;;;;;20.40;49.30;;;;;;8363512;28;19925;-45
2022/10/11 00:30:35;;;;;;;;;;;20.30;49.20;;;;;;8363427;28;19944;-44
2022/10/11 00:34:36;;;;;;;;;;;20.40;49.30;;;;;;8363429;28;19917;-44
2022/10/11 00:38:36;;;;;;;;;;;20.40;49.30;;;;;;8363472;28;20297;-44
2022/10/11 00:42:37;;;;;;;;;;;20.40;49.30;;;;;;8362790;28;19982;-46
2022/10/11 00:46:39;;;;;;;;;;;20.30;49.30;;;;;;8363190;28;20031;-44
2022/10/11 00:50:40;;;;;;;;;;;20.40;49.30;;;;;;8372419;28;20005;-45
2022/10/11 00:54:42;;;;;;;;;;;20.30;49.30;;;;;;8374144;28;19971;-44
2022/10/11 00:58:42;;;;;;;;;;;20.40;49.30;;;;;;8374338;28;20512;-44
2022/10/11 01:02:43;;;;;;;;;;;20.40;49.30;;;;;;8373793;28;19913;-44
2022/10/11 01:06:44;;;;;;;;;;;20.30;49.30;;;;;;8373854;28;19925;-44
2022/10/11 01:10:44;;;;;;;;;;;20.40;49.40;;;;;;8373602;28;20031;-44
2022/10/11 01:14:44;;;;;;;;;;;20.30;49.30;;;;;;8373450;28;19917;-45
2022/10/11 01:19:02;;;;;;;;;;;20.30;49.40;;;;;;8373884;28;19917;-45
2022/10/11 01:23:27;;;;;;;;;;;20.30;49.40;;;;;;8373854;28;19948;-44
2022/10/11 01:27:40;;;;;;;;;;;20.30;49.40;;;;;;8373377;28;19987;-45
2022/10/11 01:31:46;;;;;;;;;;;20.30;49.40;;;;;;8373663;28;19913;-44
2022/10/11 01:35:56;;;;;;;;;;;20.30;49.40;;;;;;8373513;28;20274;-44
2022/10/11 01:40:00;;;;;;;;;;;20.30;49.40;;;;;;8373909;28;19995;-45
2022/10/11 01:44:01;;;;;;;;;;;20.30;49.40;;;;;;8373816;28;20007;-44
2022/10/11 01:48:01;;;;;;;;;;;20.30;49.40;;;;;;8373035;28;19924;-44
2022/10/11 01:52:03;;;;;;;;;;;20.30;49.40;;;;;;8373428;28;20328;-44
2022/10/11 01:56:11;;;;;;;;;;;20.30;49.40;;;;;;8373736;28;19917;-44
2022/10/11 02:00:13;;;;;;;;;;;20.30;49.40;;;;;;8370260;28;19976;-44
2022/10/11 02:04:20;;;;;;;;;;;20.30;49.40;;;;;;8368165;28;20394;-44
2022/10/11 02:08:44;;;;;;;;;;;20.30;49.40;;;;;;8367793;28;19929;-44
2022/10/11 02:12:50;;;;;;;;;;;20.30;49.40;;;;;;8329925;28;20393;-45
2022/10/11 02:17:00;;;;;;;;;;;20.30;49.40;;;;;;8367883;28;19920;-44
2022/10/11 02:21:02;;;;;;;;;;;20.30;49.40;;;;;;8367296;28;19913;-45
2022/10/11 02:25:05;;;;;;;;;;;20.20;49.40;;;;;;8367290;28;19917;-44
2022/10/11 02:29:08;;;;;;;;;;;20.30;49.50;;;;;;8367110;28;19935;-45
2022/10/11 02:33:10;;;;;;;;;;;20.20;49.40;;;;;;8366711;28;19924;-45
2022/10/11 02:37:13;;;;;;;;;;;20.20;49.40;;;;;;8367032;28;19931;-44
2022/10/11 02:41:17;;;;;;;;;;;20.20;49.40;;;;;;8367483;28;19931;-45
2022/10/11 02:45:24;;;;;;;;;;;20.20;49.40;;;;;;8366323;28;20027;-44
2022/10/11 02:49:25;;;;;;;;;;;20.20;49.40;;;;;;8366739;28;20332;-44
2022/10/11 02:53:26;;;;;;;;;;;20.20;49.50;;;;;;8366376;28;20437;-44
2022/10/11 02:57:26;;;;;;;;;;;20.20;49.50;;;;;;8366015;28;19962;-44
2022/10/11 03:01:27;;;;;;;;;;;20.20;49.50;;;;;;8366481;28;19920;-45
2022/10/11 03:05:27;;;;;;;;;;;20.20;49.50;;;;;;8366146;28;19924;-44
2022/10/11 03:09:28;;;;;;;;;;;20.20;49.50;;;;;;8365512;28;19921;-44
2022/10/11 03:13:28;;;;;;;;;;;20.20;49.50;;;;;;8364660;28;19917;-44
2022/10/11 03:17:29;;;;;;;;;;;20.20;49.50;;;;;;8365745;28;19917;-43
2022/10/11 03:21:29;;;;;;;;;;;20.20;49.60;;;;;;8365294;28;19958;-44
2022/10/11 03:25:30;;;;;;;;;;;20.20;49.60;;;;;;8365363;28;19916;-43
2022/10/11 03:29:30;;;;;;;;;;;20.20;49.60;;;;;;8365376;28;20285;-43
2022/10/11 03:33:30;;;;;;;;;;;20.20;49.60;;;;;;8364738;28;19917;-43
2022/10/11 03:37:31;;;;;;;;;;;20.20;49.60;;;;;;8365328;28;19920;-43
2022/10/11 03:41:31;;;;;;;;;;;20.20;49.60;;;;;;8365155;28;20374;-43
2022/10/11 03:45:32;;;;;;;;;;;20.20;49.60;;;;;;8364348;28;19917;-43
2022/10/11 03:49:32;;;;;;;;;;;20.20;49.60;;;;;;8364625;28;19924;-45
2022/10/11 03:53:33;;;;;;;;;;;20.20;49.60;;;;;;8364488;28;20066;-43
2022/10/11 03:57:33;;;;;;;;;;;20.20;49.60;;;;;;8364114;28;19917;-45
2022/10/11 04:01:36;;;;;;;;;;;20.20;49.60;;;;;;8364778;28;20266;-45
2022/10/11 04:05:37;;;;;;;;;;;20.20;49.60;;;;;;8364242;28;20417;-45
2022/10/11 04:09:37;;;;;;;;;;;20.20;49.70;;;;;;8363607;28;19924;-45
2022/10/11 04:13:38;;;;;;;;;;;20.20;49.70;;;;;;8344287;28;19924;-44
2022/10/11 04:17:39;;;;;;;;;;;20.20;49.60;;;;;;8364021;28;19913;-44
2022/10/11 04:21:39;;;;;;;;;;;20.20;49.60;;;;;;8363762;28;19913;-44
2022/10/11 04:25:40;;;;;;;;;;;20.20;49.60;;;;;;8363326;28;19920;-45
2022/10/11 04:29:40;;;;;;;;;;;20.20;49.60;;;;;;8363282;28;19921;-44
2022/10/11 04:33:40;;;;;;;;;;;20.20;49.60;;;;;;8363586;28;20400;-43
2022/10/11 04:37:41;;;;;;;;;;;20.20;49.60;;;;;;8363442;28;19913;-43
2022/10/11 04:41:41;;;;;;;;;;;20.20;49.60;;;;;;8363729;28;19944;-43
2022/10/11 04:45:42;;;;;;;;;;;20.20;49.60;;;;;;8363201;28;19921;-43
2022/10/11 04:49:42;;;;;;;;;;;20.20;49.60;;;;;;8363264;28;19939;-43
2022/10/11 04:53:43;;;;;;;;;;;20.20;49.70;;;;;;8362834;28;20376;-43
2022/10/11 04:57:43;;;;;;;;;;;20.20;49.60;;;;;;8363478;28;20482;-43
2022/10/11 05:01:44;;;;;;;;;;;20.20;49.60;;;;;;8363116;28;20015;-43
2022/10/11 05:05:44;;;;;;;;;;;20.20;49.60;;;;;;8362563;28;19921;-44
2022/10/11 05:09:45;;;;;;;;;;;20.20;49.60;;;;;;8363507;28;20404;-44
2022/10/11 05:13:45;;;;;;;;;;;20.20;49.70;;;;;;8362881;28;19916;-43
2022/10/11 05:17:46;;;;;;;;;;;20.20;49.60;;;;;;8362606;28;19917;-42
2022/10/11 05:21:46;;;;;;;;;;;20.20;49.60;;;;;;8362850;28;19939;-43
2022/10/11 05:25:47;;;;;;;;;;;20.20;49.60;;;;;;8362659;28;20407;-44
2022/10/11 05:29:48;;;;;;;;;;;20.20;49.60;;;;;;8362224;28;19940;-44
2022/10/11 05:33:48;;;;;;;;;;;20.20;49.60;;;;;;8362883;28;20354;-43
2022/10/11 05:37:49;;;;;;;;;;;20.20;49.70;;;;;;8368183;28;19923;-44
2022/10/11 05:41:50;;;;;;;;;;;20.20;49.70;;;;;;8368739;28;19921;-44
2022/10/11 05:45:51;;;;;;;;;;;20.20;49.70;;;;;;8368542;28;19956;-46
2022/10/11 05:49:51;;;;;;;;;;;20.10;49.70;;;;;;8368368;28;19920;-44
2022/10/11 05:53:52;;;;;;;;;;;20.10;49.70;;;;;;8368055;28;19924;-44
2022/10/11 05:57:53;;;;;;;;;;;20.20;49.70;;;;;;8368565;28;19919;-44
2022/10/11 06:01:53;;;;;;;;;;;20.10;49.70;;;;;;8368368;28;20368;-43
2022/10/11 06:05:54;;;;;;;;;;;20.10;49.70;;;;;;8367443;28;19929;-45
2022/10/11 06:09:54;;;;;;;;;;;20.10;49.70;;;;;;8368164;28;19917;-44
2022/10/11 06:13:56;;;;;;;;;;;20.10;49.70;;;;;;8367883;28;20115;-44
2022/10/11 06:17:58;;;;;;;;;;;20.10;49.70;;;;;;8367554;28;20255;-44
2022/10/11 06:21:58;;;;;;;;;;;20.10;49.70;;;;;;8368033;28;19917;-44
2022/10/11 06:26:00;;;;;;;;;;;20.10;49.70;;;;;;8367356;28;19974;-43
2022/10/11 06:30:00;;;;;;;;;;;20.20;49.80;;;;;;8366785;28;19916;-44
2022/10/11 06:34:01;;;;;;;;;;;20.10;49.70;;;;;;8367046;28;19939;-43
2022/10/11 06:38:01;;;;;;;;;;;20.10;49.70;;;;;;8367347;28;20000;-43
2022/10/11 06:42:02;;;;;;;;;;;20.10;49.80;;;;;;8366736;28;19921;-43
2022/10/11 06:46:02;;;;;;;;;;;20.10;49.80;;;;;;8366272;28;19921;-44
2022/10/11 06:50:05;;;;;;;;;;;20.10;49.80;;;;;;8366691;28;19920;-43
2022/10/11 06:54:05;;;;;;;;;;;20.10;49.70;;;;;;8366011;28;19917;-43
2022/10/11 06:58:05;;;;;;;;;;;20.10;49.70;;;;;;8366811;28;19999;-44
2022/10/11 07:02:07;;;;;;;;;;;20.20;49.80;;;;;;8364874;28;20003;-44
2022/10/11 07:06:09;;;;;;;;;;;20.20;49.70;;;;;;8365515;28;19933;-44
2022/10/11 07:10:09;;;;;;;;;;;20.20;49.80;;;;;;8366010;28;19952;-44
2022/10/11 07:14:10;;;;;;;;;;;20.20;49.70;;;;;;8365802;28;20293;-44
2022/10/11 07:18:10;;;;;;;;;;;20.20;49.70;;;;;;8365942;28;19917;-44
2022/10/11 07:22:11;;;;;;;;;;;20.20;49.60;;;;;;8365674;28;20293;-44
2022/10/11 07:26:11;;;;;;;;;;;20.20;49.60;;;;;;8365404;28;20378;-43
2022/10/11 07:30:12;;;;;;;;;;;20.20;49.70;;;;;;8364861;28;19916;-44
2022/10/11 07:34:12;;;;;;;;;;;20.20;49.60;;;;;;8365061;28;19966;-43
2022/10/11 07:38:13;;;;;;;;;;;20.20;49.60;;;;;;8365418;28;19916;-43
2022/10/11 07:42:13;;;;;;;;;;;20.30;49.60;;;;;;8365014;28;19920;-43
2022/10/11 07:46:14;;;;;;;;;;;20.30;49.60;;;;;;8364993;28;19936;-43
2022/10/11 07:50:15;;;;;;;;;;;20.20;49.60;;;;;;8364724;28;19971;-43
2022/10/11 07:54:15;;;;;;;;;;;20.30;49.70;;;;;;8364117;28;19917;-43
2022/10/11 07:58:16;;;;;;;;;;;20.30;49.60;;;;;;8364070;28;19917;-43
2022/10/11 08:02:16;;;;;;;;;;;20.30;49.60;;;;;;8364497;28;19923;-45
2022/10/11 08:06:19;;;;;;;;;;;20.30;49.60;;;;;;8363762;28;20451;-45
2022/10/11 08:10:19;;;;;;;;;;;20.30;49.60;;;;;;8364234;28;19917;-44
2022/10/11 08:14:20;;;;;;;;;;;20.30;49.60;;;;;;8364240;28;20389;-43
2022/10/11 08:18:21;;;;;;;;;;;20.40;49.60;;;;;;8363780;28;19917;-44
2022/10/11 08:22:21;;;;;;;;;;;20.40;49.60;;;;;;8364183;28;20373;-43
2022/10/11 08:26:22;;;;;;;;;;;20.30;49.50;;;;;;8363661;28;19924;-42
2022/10/11 08:30:22;;;;;;;;;;;20.30;49.50;;;;;;8363114;28;19999;-43
2022/10/11 08:34:23;;;;;;;;;;;20.40;49.60;;;;;;8363429;28;19920;-43
2022/10/11 08:38:23;;;;;;;;;;;20.40;49.60;;;;;;8363749;28;20305;-43
2022/10/11 08:42:50;;;;;;;;;;;20.40;50.10;;;;;;8363419;28;20409;-44
2022/10/11 08:46:55;;;;;;;;;;;20.40;49.60;;;;;;8359269;28;19925;-43
2022/10/11 08:50:56;;;;;;;;;;;20.40;49.60;;;;;;8362708;28;20336;-43
2022/10/11 08:54:58;;;;;;;;;;;20.40;49.60;;;;;;8363399;28;19913;-43
2022/10/11 08:59:07;;;;;;;;;;;20.40;49.60;;;;;;8363196;28;20286;-43
2022/10/11 09:03:11;;;;;;;;;;;20.40;49.60;;;;;;8362946;28;19963;-44
2022/10/11 09:07:17;;;;;;;;;;;20.40;49.60;;;;;;8363256;28;19925;-44
2022/10/11 09:11:36;;;;;;;;;;;20.40;50.10;;;;;;8367898;28;20467;-43
2022/10/11 09:15:55;;;;;;;;;;;20.40;49.60;;;;;;8369055;28;20398;-43
2022/10/11 09:20:03;;;;;;;;;;;20.40;49.60;;;;;;8369575;28;19913;-43
2022/10/11 09:24:16;;;;;;;;;;;20.50;49.60;;;;;;8369107;28;19917;-44
2022/10/11 09:28:16;;;;;;;;;;;20.50;49.60;;;;;;8369079;28;19929;-43
2022/10/11 09:32:19;;;;;;;;;;;20.50;49.60;;;;;;8369102;28;19944;-44
2022/10/11 09:36:20;;;;;;;;;;;20.50;49.60;;;;;;8368996;28;19921;-43
2022/10/11 09:40:27;;;;;;;;;;;20.50;49.60;;;;;;8368532;28;20396;-44
2022/10/11 09:44:29;;;;;;;;;;;20.50;49.50;;;;;;8369003;28;19913;-44
2022/10/11 09:48:37;;;;;;;;;;;20.50;49.50;;;;;;8368041;28;20436;-44
2022/10/11 09:52:46;;;;;;;;;;;20.50;49.50;;;;;;8368428;28;19916;-44
2022/10/11 09:56:47;;;;;;;;;;;20.60;49.70;;;;;;8367876;28;20309;-43
2022/10/11 10:00:55;;;;;;;;;;;20.60;49.50;;;;;;8368099;28;19917;-45
2022/10/11 10:05:05;;;;;;;;;;;20.60;49.50;;;;;;8367022;28;19919;-43
2022/10/11 10:09:24;;;;;;;;;;;20.70;49.50;;;;;;8367770;28;20302;-44
2022/10/11 10:13:43;;;;;;;;;;;20.60;49.70;;;;;;8368015;28;19921;-44
2022/10/11 10:17:51;;;;;;;;;;;20.60;49.40;;;;;;8367273;28;19921;-43
2022/10/11 10:21:53;;;;;;;;;;;20.60;49.40;;;;;;8367017;28;19952;-43
2022/10/11 10:26:08;;;;;;;;;;;20.60;49.30;;;;;;8367269;28;19917;-43
2022/10/11 10:30:08;;;;;;;;;;;20.60;49.40;;;;;;8366914;28;19913;-44
2022/10/11 10:34:12;;;;;;;;;;;20.70;49.40;;;;;;8367387;28;19913;-43
2022/10/11 10:38:16;;;;;;;;;;;20.70;49.40;;;;;;8367045;28;20332;-43
2022/10/11 10:42:17;;;;;;;;;;;20.70;49.30;;;;;;8367011;28;19943;-43
2022/10/11 10:46:27;;;;;;;;;;;20.70;49.30;;;;;;8367038;28;19921;-43
2022/10/11 10:50:27;;;;;;;;;;;20.70;49.30;;;;;;8366589;28;19925;-43
2022/10/11 10:54:37;;;;;;;;;;;20.70;49.30;;;;;;8366624;28;19913;-45
2022/10/11 10:58:48;;;;;;;;;;;20.70;49.30;;;;;;8366750;28;19939;-44
2022/10/11 11:03:07;;;;;;;;;;;20.80;49.30;;;;;;8365909;28;20030;-42
2022/10/11 11:07:28;;;;;;;;;;;20.70;49.20;;;;;;8366010;28;20039;-43
2022/10/11 11:11:28;;;;;;;;;;;20.80;49.80;;;;;;8366442;28;19944;-43
2022/10/11 11:15:45;;;;;;;;;;;20.80;49.20;;;;;;8365836;28;19913;-44
2022/10/11 11:20:01;;;;;;;;;;;20.80;49.20;;;;;;8366151;28;19925;-43
2022/10/11 11:24:20;;;;;;;;;;;20.80;49.20;;;;;;8365502;28;19916;-43
2022/10/11 11:28:32;;;;;;;;;;;20.90;49.70;;;;;;8365605;28;20039;-44
2022/10/11 11:32:38;;;;;;;;;;;20.90;49.20;;;;;;8364536;28;19971;-43
2022/10/11 11:36:50;;;;;;;;;;;20.90;49.10;;;;;;8364712;28;19924;-44
2022/10/11 11:40:53;;;;;;;;;;;20.90;49.10;;;;;;8365432;28;19929;-43
2022/10/11 11:44:54;;;;;;;;;;;20.90;49.10;;;;;;8364792;28;20290;-43
2022/10/11 11:48:56;;;;;;;;;;;20.90;49.10;;;;;;8364968;28;19936;-45
2022/10/11 11:52:59;;;;;;;;;;;21.00;49.10;;;;;;8364575;28;19916;-45
2022/10/11 11:57:06;;;;;;;;;;;21.00;49.10;;;;;;8364426;28;20282;-44
2022/10/11 12:01:26;;;;;;;;;;;20.90;49.00;;;;;;8364153;28;19924;-44
2022/10/11 12:05:29;;;;;;;;;;;21.00;49.10;;;;;;8364576;28;20411;-48
2022/10/11 12:09:30;;;;;;;;;;;21.00;49.00;;;;;;8363583;28;19925;-44
2022/10/11 12:13:34;;;;;;;;;;;21.00;49.00;;;;;;8364027;28;19917;-45
2022/10/11 12:17:52;;;;;;;;;;;21.00;49.00;;;;;;8364143;28;19916;-46
2022/10/11 12:22:13;;;;;;;;;;;21.00;49.00;;;;;;8363628;28;19970;-45
2022/10/11 12:26:34;;;;;;;;;;;21.10;49.00;;;;;;8363660;28;19925;-46
2022/10/11 12:30:46;;;;;;;;;;;21.10;49.00;;;;;;8363450;28;19999;-44
2022/10/11 12:34:47;;;;;;;;;;;21.10;49.00;;;;;;8363776;28;20305;-43
2022/10/11 12:39:07;;;;;;;;;;;21.10;48.90;;;;;;8362986;28;19916;-44
2022/10/11 12:43:22;;;;;;;;;;;21.10;48.90;;;;;;8363344;28;19921;-46
2022/10/11 12:47:30;;;;;;;;;;;21.10;48.90;;;;;;8363408;28;19921;-44
2022/10/11 12:51:37;;;;;;;;;;;21.10;48.90;;;;;;8362808;28;20011;-46
2022/10/11 12:55:56;;;;;;;;;;;21.10;48.90;;;;;;8363157;28;19912;-46
2022/10/11 13:00:06;;;;;;;;;;;21.10;48.90;;;;;;8362613;28;19939;-46
2022/10/11 13:04:08;;;;;;;;;;;21.20;49.00;;;;;;8342643;28;19917;-45
2022/10/11 13:08:13;;;;;;;;;;;21.10;48.80;;;;;;8347139;28;19928;-44
2022/10/11 13:12:16;;;;;;;;;;;21.20;48.90;;;;;;8362091;28;19916;-45
2022/10/11 13:16:18;;;;;;;;;;;21.20;48.90;;;;;;8362585;28;19920;-45
2022/10/11 13:20:20;;;;;;;;;;;21.20;48.90;;;;;;8362990;28;19917;-46
2022/10/11 13:24:22;;;;;;;;;;;21.20;48.90;;;;;;8361794;28;19921;-44
2022/10/11 13:28:22;;;;;;;;;;;21.20;48.90;;;;;;8362180;28;20271;-44
2022/10/11 13:32:25;;;;;;;;;;;21.20;48.90;;;;;;8362472;28;19917;-45
2022/10/11 13:36:25;;;;;;;;;;;21.20;48.90;;;;;;8362049;28;19924;-46
2022/10/11 13:40:27;;;;;;;;;;;21.20;48.80;;;;;;8362636;28;19921;-46
2022/10/11 13:44:31;;;;;;;;;;;21.20;48.80;;;;;;8361838;28;19917;-45
2022/10/11 13:48:37;;;;;;;;;;;21.30;48.80;;;;;;8361563;28;19925;-47
2022/10/11 13:52:56;;;;;;;;;;;21.30;48.80;;;;;;8362249;28;19916;-46
2022/10/11 13:57:02;;;;;;;;;;;21.30;48.80;;;;;;8364007;28;19923;-44
2022/10/11 14:01:23;;;;;;;;;;;21.30;48.80;;;;;;8368693;28;19971;-43
2022/10/11 14:05:29;;;;;;;;;;;21.30;48.90;;;;;;8367416;28;20274;-44
2022/10/11 14:09:32;;;;;;;;;;;21.30;48.80;;;;;;8367265;28;19925;-44
2022/10/11 14:13:33;;;;;;;;;;;21.30;48.80;;;;;;8367760;28;19917;-45
2022/10/11 14:17:40;;;;;;;;;;;21.30;48.80;;;;;;8367765;28;19916;-44
2022/10/11 14:21:51;;;;;;;;;;;21.30;48.70;;;;;;8367188;28;19959;-44
2022/10/11 14:25:52;;;;;;;;;;;21.30;48.70;;;;;;8367469;28;19913;-44
2022/10/11 14:29:52;;;;;;;;;;;21.30;48.80;;;;;;8366607;28;19916;-45
2022/10/11 14:33:53;;;;;;;;;;;21.30;48.80;;;;;;8366983;28;19940;-44
2022/10/11 14:37:54;;;;;;;;;;;21.30;48.80;;;;;;8366618;28;19917;-46
2022/10/11 14:41:54;;;;;;;;;;;21.30;48.90;;;;;;8366809;28;19931;-49
2022/10/11 14:45:55;;;;;;;;;;;21.30;48.90;;;;;;8366486;28;19917;-45
2022/10/11 14:49:55;;;;;;;;;;;21.30;48.80;;;;;;8366445;28;20385;-47
2022/10/11 14:53:56;;;;;;;;;;;21.30;48.80;;;;;;8365740;28;20435;-49
2022/10/11 14:57:56;;;;;;;;;;;21.30;48.90;;;;;;8366126;28;20350;-47
2022/10/11 15:01:57;;;;;;;;;;;21.30;48.90;;;;;;8366255;28;19912;-46
2022/10/11 15:05:57;;;;;;;;;;;21.30;49.00;;;;;;8365962;28;19913;-45
2022/10/11 15:09:57;;;;;;;;;;;21.30;49.00;;;;;;8365734;28;19921;-48
2022/10/11 15:13:58;;;;;;;;;;;21.20;49.00;;;;;;8365848;28;19917;-44
2022/10/11 15:17:59;;;;;;;;;;;21.30;49.00;;;;;;8365140;28;20015;-48
2022/10/11 15:22:01;;;;;;;;;;;21.30;49.00;;;;;;8365847;28;20062;-45
2022/10/11 15:26:01;;;;;;;;;;;21.30;49.00;;;;;;8365773;28;19914;-45
2022/10/11 15:30:05;;;;;;;;;;;21.20;49.00;;;;;;8364578;28;19928;-44
2022/10/11 15:34:05;;;;;;;;;;;21.30;49.10;;;;;;8365043;28;19921;-45
2022/10/11 15:38:14;;;;;;;;;;;21.30;49.00;;;;;;8364772;28;19982;-44
2022/10/11 15:42:14;;;;;;;;;;;21.20;49.00;;;;;;8366083;28;19928;-46
2022/10/11 15:46:16;;;;;;;;;;;21.20;49.10;;;;;;8364515;28;20397;-45
2022/10/11 15:50:33;;;;;;;;;;;21.20;49.00;;;;;;8364360;28;19916;-47
2022/10/11 15:54:34;;;;;;;;;;;21.20;49.00;;;;;;8363653;28;19917;-44
2022/10/11 15:58:38;;;;;;;;;;;21.20;49.00;;;;;;8364336;28;19982;-43
2022/10/11 16:02:39;;;;;;;;;;;21.20;49.00;;;;;;8364420;28;20008;-44
2022/10/11 16:06:40;;;;;;;;;;;21.20;49.10;;;;;;8364042;28;19921;-43
2022/10/11 16:10:40;;;;;;;;;;;21.20;49.10;;;;;;8363018;28;19923;-44
2022/10/11 16:14:41;;;;;;;;;;;21.20;49.10;;;;;;8363614;28;19975;-43
2022/10/11 16:18:41;;;;;;;;;;;21.20;49.10;;;;;;8363407;28;20134;-43
2022/10/11 16:22:42;;;;;;;;;;;21.20;49.10;;;;;;8363699;28;19913;-44
2022/10/11 16:26:42;;;;;;;;;;;21.20;49.10;;;;;;8363463;28;19948;-45
2022/10/11 16:30:43;;;;;;;;;;;21.20;49.10;;;;;;8364003;28;20370;-46
2022/10/11 16:34:43;;;;;;;;;;;21.20;49.60;;;;;;8363567;28;19920;-45
2022/10/11 16:38:44;;;;;;;;;;;21.20;49.10;;;;;;8363140;28;19921;-45
2022/10/11 16:42:45;;;;;;;;;;;21.20;49.10;;;;;;8363636;28;20308;-42
2022/10/11 16:46:49;;;;;;;;;;;21.20;49.10;;;;;;8363569;28;19929;-43
2022/10/11 16:50:49;;;;;;;;;;;21.20;49.10;;;;;;8362859;28;19948;-44
2022/10/11 16:54:50;;;;;;;;;;;21.20;49.10;;;;;;8363269;28;19917;-43
2022/10/11 16:58:51;;;;;;;;;;;21.20;49.10;;;;;;8363201;28;19912;-43
2022/10/11 17:02:52;;;;;;;;;;;21.20;49.10;;;;;;8362589;28;20001;-44
2022/10/11 17:06:53;;;;;;;;;;;21.20;49.10;;;;;;8363148;28;19925;-45
2022/10/11 17:10:54;;;;;;;;;;;21.20;49.10;;;;;;8363128;28;19917;-43
2022/10/11 17:14:55;;;;;;;;;;;21.20;49.10;;;;;;8362560;28;20425;-46
2022/10/11 17:18:56;;;;;;;;;;;21.20;49.20;;;;;;8363179;28;19992;-45
2022/10/11 17:22:56;;;;;;;;;;;21.20;49.10;;;;;;8362815;28;19921;-44
2022/10/11 17:26:57;;;;;;;;;;;21.20;49.10;;;;;;8362221;28;20398;-44
2022/10/11 17:30:58;;;;;;;;;;;21.20;49.10;;;;;;8363785;28;19917;-43
2022/10/11 17:35:00;;;;;;;;;;;21.10;49.10;;;;;;8369092;28;19959;-44
2022/10/11 17:39:03;;;;;;;;;;;21.10;49.10;;;;;;8368622;28;19917;-45
2022/10/11 17:43:03;;;;;;;;;;;21.20;49.10;;;;;;8368663;28;19928;-43
2022/10/11 17:47:03;;;;;;;;;;;21.20;49.10;;;;;;8368876;28;19950;-44
2022/10/11 17:51:05;;;;;;;;;;;21.20;49.10;;;;;;8368138;28;20328;-44
2022/10/11 17:55:06;;;;;;;;;;;21.10;49.10;;;;;;8368451;28;20361;-43
2022/10/11 17:59:07;;;;;;;;;;;21.20;49.10;;;;;;8368338;28;19924;-43
2022/10/11 18:03:08;;;;;;;;;;;21.10;49.10;;;;;;8367626;28;20277;-45
2022/10/11 18:07:08;;;;;;;;;;;21.20;49.10;;;;;;8368308;28;19921;-45
2022/10/11 18:11:10;;;;;;;;;;;21.10;49.10;;;;;;8367936;28;20019;-44
2022/10/11 18:15:11;;;;;;;;;;;21.10;49.10;;;;;;8367333;28;20328;-44
2022/10/11 18:19:12;;;;;;;;;;;21.20;49.10;;;;;;8367682;28;20054;-44
2022/10/11 18:23:14;;;;;;;;;;;21.20;49.10;;;;;;8367759;28;19967;-45
2022/10/11 18:27:15;;;;;;;;;;;21.20;49.10;;;;;;8367327;28;20354;-45
2022/10/11 18:31:17;;;;;;;;;;;21.10;49.00;;;;;;8367585;28;19927;-44
2022/10/11 18:35:17;;;;;;;;;;;21.10;49.10;;;;;;8367217;28;20369;-45
2022/10/11 18:39:20;;;;;;;;;;;21.20;49.10;;;;;;8366716;28;19917;-44
2022/10/11 18:43:20;;;;;;;;;;;21.10;49.10;;;;;;8366885;28;19925;-44
2022/10/11 18:47:21;;;;;;;;;;;21.10;49.00;;;;;;8367064;28;20305;-43
2022/10/11 18:51:22;;;;;;;;;;;21.10;49.00;;;;;;8365032;28;20404;-45
2022/10/11 18:55:23;;;;;;;;;;;21.10;49.00;;;;;;8366678;28;20427;-44
2022/10/11 18:59:23;;;;;;;;;;;21.10;49.00;;;;;;8366513;28;19913;-44
2022/10/11 19:03:24;;;;;;;;;;;21.10;49.00;;;;;;8366254;28;19924;-43
2022/10/11 19:07:24;;;;;;;;;;;21.10;49.00;;;;;;8343437;28;19925;-43
2022/10/11 19:11:26;;;;;;;;;;;21.10;49.00;;;;;;8357532;28;20143;-43
2022/10/11 19:15:26;;;;;;;;;;;21.10;49.00;;;;;;8365520;28;20442;-45
2022/10/11 19:19:28;;;;;;;;;;;21.10;49.00;;;;;;8365851;28;19913;-43
2022/10/11 19:23:35;;;;;;;;;;;21.20;49.10;;;;;;8366095;28;19917;-45
2022/10/11 19:27:35;;;;;;;;;;;21.10;49.00;;;;;;8365153;28;19964;-44
2022/10/11 19:31:39;;;;;;;;;;;21.10;49.00;;;;;;8365491;28;20289;-44
2022/10/11 19:35:41;;;;;;;;;;;21.10;49.00;;;;;;8365160;28;19920;-45
2022/10/11 19:39:41;;;;;;;;;;;21.10;49.00;;;;;;8365433;28;19917;-44
2022/10/11 19:43:42;;;;;;;;;;;21.10;49.00;;;;;;8365146;28;19920;-44
2022/10/11 19:47:42;;;;;;;;;;;21.10;49.00;;;;;;8364860;28;20339;-45
2022/10/11 19:51:43;;;;;;;;;;;21.10;49.00;;;;;;8364818;28;19970;-45
2022/10/11 19:55:45;;;;;;;;;;;21.10;49.00;;;;;;8363423;28;21376;-44
2022/10/11 19:59:45;;;;;;;;;;;21.10;49.00;;;;;;8364069;28;19927;-44
2022/10/11 20:03:49;;;;;;;;;;;21.10;49.00;;;;;;8365060;28;19935;-44
2022/10/11 20:07:49;;;;;;;;;;;21.10;49.00;;;;;;8364596;28;19929;-44
2022/10/11 20:11:50;;;;;;;;;;;21.10;49.00;;;;;;8363926;28;19924;-44
2022/10/11 20:15:54;;;;;;;;;;;21.10;49.00;;;;;;8364007;28;20281;-44
2022/10/11 20:19:54;;;;;;;;;;;21.10;49.00;;;;;;8364294;28;19935;-44
2022/10/11 20:23:56;;;;;;;;;;;21.10;49.00;;;;;;8363852;28;19919;-44
2022/10/11 20:27:57;;;;;;;;;;;21.10;49.00;;;;;;8363899;28;19971;-43
2022/10/11 20:31:57;;;;;;;;;;;21.10;49.00;;;;;;8363865;28;20054;-45
2022/10/11 20:36:06;;;;;;;;;;;21.10;49.10;;;;;;8363234;28;20285;-43
2022/10/11 20:40:06;;;;;;;;;;;21.00;49.00;;;;;;8363593;28;20034;-45
2022/10/11 20:44:07;;;;;;;;;;;21.00;49.00;;;;;;8362172;28;19935;-45
2022/10/11 20:48:08;;;;;;;;;;;21.10;49.00;;;;;;8363272;28;19956;-46
2022/10/11 20:52:09;;;;;;;;;;;21.00;49.00;;;;;;8363535;28;19963;-44
2022/10/11 20:56:10;;;;;;;;;;;21.10;49.10;;;;;;8363418;28;20428;-44
2022/10/11 21:00:11;;;;;;;;;;;21.00;49.00;;;;;;8362796;28;19917;-44
2022/10/11 21:04:16;;;;;;;;;;;21.00;49.00;;;;;;8363490;28;19920;-43
2022/10/11 21:08:16;;;;;;;;;;;21.00;49.00;;;;;;8369656;28;20289;-45
2022/10/11 21:12:16;;;;;;;;;;;21.00;49.00;;;;;;8369489;28;19917;-44
2022/10/11 21:16:17;;;;;;;;;;;21.00;49.00;;;;;;8368429;28;19924;-45
2022/10/11 21:20:17;;;;;;;;;;;21.00;49.00;;;;;;8367973;28;19939;-42
2022/10/11 21:24:18;;;;;;;;;;;21.00;49.60;;;;;;8369243;28;19995;-44
2022/10/11 21:28:18;;;;;;;;;;;21.00;49.00;;;;;;8369272;28;19932;-45
2022/10/11 21:32:19;;;;;;;;;;;21.00;49.00;;;;;;8369579;28;19917;-44
2022/10/11 21:36:20;;;;;;;;;;;21.00;49.00;;;;;;8368675;28;19916;-43
2022/10/11 21:40:21;;;;;;;;;;;21.00;49.00;;;;;;8369094;28;19932;-44
2022/10/11 21:44:21;;;;;;;;;;;21.00;49.00;;;;;;8369246;28;19913;-43
2022/10/11 21:48:22;;;;;;;;;;;20.90;49.00;;;;;;8368261;28;19925;-43
2022/10/11 21:52:22;;;;;;;;;;;21.00;49.10;;;;;;8368709;28;19924;-45
2022/10/11 21:56:23;;;;;;;;;;;21.00;49.10;;;;;;8368635;28;20465;-43
2022/10/11 22:00:23;;;;;;;;;;;21.00;49.10;;;;;;8367153;28;19924;-43
2022/10/11 22:04:23;;;;;;;;;;;21.00;49.10;;;;;;8367364;28;19916;-44
2022/10/11 22:08:24;;;;;;;;;;;20.90;49.00;;;;;;8368195;28;19964;-46
2022/10/11 22:12:24;;;;;;;;;;;20.90;49.10;;;;;;8367660;28;19917;-44
2022/10/11 22:16:25;;;;;;;;;;;20.90;49.00;;;;;;8366955;28;19921;-44
2022/10/11 22:20:26;;;;;;;;;;;20.90;49.10;;;;;;8367790;28;19921;-44
2022/10/11 22:24:27;;;;;;;;;;;20.90;49.10;;;;;;8367283;28;19917;-44
2022/10/11 22:28:27;;;;;;;;;;;20.90;49.10;;;;;;8367661;28;20416;-44
2022/10/11 22:32:28;;;;;;;;;;;20.90;49.10;;;;;;8367429;28;19955;-46
2022/10/11 22:36:32;;;;;;;;;;;20.90;49.10;;;;;;8366881;28;19917;-45
2022/10/11 22:40:32;;;;;;;;;;;20.90;49.10;;;;;;8367318;28;20004;-46
2022/10/11 22:44:33;;;;;;;;;;;20.90;49.10;;;;;;8367644;28;19919;-45
2022/10/11 22:48:34;;;;;;;;;;;20.90;49.10;;;;;;8366503;28;19925;-45
2022/10/11 22:52:35;;;;;;;;;;;20.90;49.10;;;;;;8366941;28;19920;-45
2022/10/11 22:56:35;;;;;;;;;;;20.90;49.10;;;;;;8366433;28;19917;-45
2022/10/11 23:00:36;;;;;;;;;;;20.80;49.10;;;;;;8366172;28;19921;-44
2022/10/11 23:04:36;;;;;;;;;;;20.80;49.10;;;;;;8366900;28;19917;-45
2022/10/11 23:08:36;;;;;;;;;;;20.80;49.10;;;;;;8366411;28;19928;-45
2022/10/11 23:12:37;;;;;;;;;;;20.80;49.10;;;;;;8365835;28;19917;-44
2022/10/11 23:16:37;;;;;;;;;;;20.80;49.10;;;;;;8365664;28;19962;-44
2022/10/11 23:20:38;;;;;;;;;;;20.80;49.10;;;;;;8366072;28;20344;-45
2022/10/11 23:24:38;;;;;;;;;;;20.80;49.10;;;;;;8365579;28;19912;-43
2022/10/11 23:28:39;;;;;;;;;;;20.80;49.20;;;;;;8365425;28;19983;-44
2022/10/11 23:32:40;;;;;;;;;;;20.80;49.20;;;;;;8365253;28;20284;-46